Time;durP1;ratioP1;P1;durP2;ratioP2;P2;SDS_P1;SDS_P2;PMS_P1;PMS_P2;Temp;Humidity;BMP_temperature;BMP_pressure;BME280_temperature;BME280_humidity;BME280_pressure;Samples;Min_cycle;Max_cycle;Signal;HPM_P1;HPM_P2
2021/07/15 00:06:58;;;;;;;0.90;0.40;;;18.10;99.90;;;;;;4770884;29;20464;-87
2021/07/15 00:24:28;;;;;;;;;;;;;;;;;;;;;
2021/07/15 00:55:48;;;;;;;1.60;1.00;;;17.00;99.90;;;;;;4791059;29;20464;-87
2021/07/15 01:15:50;;;;;;;1.63;1.07;;;17.10;99.90;;;;;;4850515;29;20531;-87
2021/07/15 01:47:15;;;;;;;1.00;0.67;;;17.10;99.90;;;;;;4920352;29;20504;-86
2021/07/15 02:23:47;;;;;;;1.47;1.37;;;17.00;99.90;;;;;;4794221;29;20447;-86
2021/07/15 02:30:05;;;;;;;3.87;1.40;;;17.00;99.90;;;;;;4743734;30;20522;-87
2021/07/15 02:40:26;;;;;;;2.63;1.00;;;17.00;99.90;;;;;;4732650;30;20460;-88
2021/07/15 02:44:09;;;;;;;1.90;0.80;;;16.90;99.90;;;;;;4822967;29;20457;-87
2021/07/15 02:47:33;;;;;;;;;;;;;;;;;;;;;
2021/07/15 02:58:29;;;;;;;0.93;0.67;;;16.90;99.90;;;;;;4872755;29;20460;-87
2021/07/15 03:33:08;;;;;;;;;;;;;;;;;;;;;
2021/07/15 03:35:40;;;;;;;1.57;1.07;;;17.00;99.90;;;;;;5015001;23;20522;-88
2021/07/15 03:38:08;;;;;;;1.90;1.10;;;17.00;99.90;;;;;;5042077;28;20443;-91
2021/07/15 03:40:36;;;;;;;1.53;0.97;;;17.00;99.90;;;;;;5040010;28;20541;-91
2021/07/15 03:43:03;;;;;;;1.47;1.10;;;17.00;99.90;;;;;;5040672;28;20461;-90
2021/07/15 03:45:30;;;;;;;1.27;0.97;;;17.00;99.90;;;;;;5040520;28;20462;-90
2021/07/15 03:47:59;;;;;;;1.80;1.13;;;17.10;99.90;;;;;;5039857;28;20437;-91
2021/07/15 03:50:28;;;;;;;1.43;0.70;;;17.00;99.90;;;;;;5039895;28;20938;-91
2021/07/15 03:52:58;;;;;;;7.63;1.20;;;17.00;99.90;;;;;;5039526;28;20451;-91
2021/07/15 03:55:28;;;;;;;4.03;1.90;;;17.10;99.90;;;;;;5039125;28;20469;-91
2021/07/15 03:57:56;;;;;;;2.17;1.37;;;17.10;99.90;;;;;;5040874;28;20458;-91
2021/07/15 04:00:25;;;;;;;2.27;1.50;;;17.10;99.90;;;;;;5045222;28;20449;-90
2021/07/15 04:02:57;;;;;;;5.00;1.60;;;17.20;99.90;;;;;;5041434;28;20487;-90
2021/07/15 04:05:25;;;;;;;2.43;1.73;;;17.20;99.90;;;;;;5041770;28;20476;-92
2021/07/15 04:07:53;;;;;;;4.93;1.10;;;17.20;99.90;;;;;;5042040;28;20445;-92
2021/07/15 04:10:22;;;;;;;2.37;1.73;;;17.20;99.90;;;;;;5043509;28;20449;-92
2021/07/15 04:12:52;;;;;;;1.80;0.97;;;17.30;99.90;;;;;;5040030;28;20453;-91
2021/07/15 04:15:27;;;;;;;1.80;1.50;;;17.30;99.90;;;;;;5040450;28;20499;-90
2021/07/15 04:17:59;;;;;;;2.40;1.90;;;17.30;99.90;;;;;;5039248;28;20441;-91
2021/07/15 04:20:28;;;;;;;3.17;1.10;;;17.30;99.90;;;;;;5044091;28;20461;-91
2021/07/15 04:23:02;;;;;;;3.63;1.60;;;17.40;99.90;;;;;;5040010;28;20488;-91
2021/07/15 04:25:31;;;;;;;4.03;2.10;;;17.40;99.90;;;;;;5053600;28;20437;-89
2021/07/15 04:28:00;;;;;;;1.63;1.10;;;17.50;99.90;;;;;;5042410;28;20532;-91
2021/07/15 04:30:28;;;;;;;4.20;1.40;;;17.50;99.90;;;;;;5041418;28;20473;-90
2021/07/15 04:32:57;;;;;;;1.50;1.13;;;17.50;99.90;;;;;;5040158;28;20447;-92
2021/07/15 04:35:26;;;;;;;1.43;0.90;;;17.60;99.90;;;;;;5044324;28;20475;-91
2021/07/15 04:37:57;;;;;;;5.53;1.07;;;17.50;99.90;;;;;;5056072;28;20496;-90
2021/07/15 04:40:26;;;;;;;1.13;0.90;;;17.50;99.90;;;;;;5055583;28;20469;-90
2021/07/15 04:43:00;;;;;;;4.23;1.20;;;17.60;99.90;;;;;;5053351;28;20544;-91
2021/07/15 04:45:29;;;;;;;2.97;1.17;;;17.60;99.90;;;;;;5058105;28;20542;-90
2021/07/15 04:47:58;;;;;;;2.63;1.73;;;17.60;99.90;;;;;;5058033;28;20445;-89
2021/07/15 04:50:28;;;;;;;4.90;1.43;;;17.60;99.90;;;;;;5057055;28;20450;-90
2021/07/15 04:52:58;;;;;;;2.20;1.07;;;17.50;99.90;;;;;;5044737;28;20455;-91
2021/07/15 04:55:25;;;;;;;2.27;0.73;;;17.50;99.90;;;;;;5045030;28;20476;-93
2021/07/15 04:57:54;;;;;;;3.93;1.73;;;17.50;99.90;;;;;;5039543;28;20520;-90
2021/07/15 05:00:22;;;;;;;2.83;1.93;;;17.60;99.90;;;;;;5040632;28;20434;-91
2021/07/15 05:02:56;;;;;;;3.13;1.13;;;17.60;99.90;;;;;;5040992;28;20476;-90
2021/07/15 05:05:23;;;;;;;1.57;0.80;;;17.70;99.90;;;;;;5045572;28;20480;-91
2021/07/15 05:07:54;;;;;;;1.00;0.77;;;17.70;99.90;;;;;;5037061;28;20455;-91
2021/07/15 05:10:21;;;;;;;0.83;0.60;;;17.70;99.90;;;;;;5037187;28;20445;-91
2021/07/15 05:12:48;;;;;;;0.93;0.60;;;17.70;99.90;;;;;;5041259;28;20438;-90
2021/07/15 05:15:16;;;;;;;2.63;0.90;;;17.70;99.90;;;;;;5039708;28;20476;-91
2021/07/15 05:17:43;;;;;;;1.10;0.80;;;17.70;99.90;;;;;;5037315;28;20445;-91
2021/07/15 05:20:11;;;;;;;2.40;0.70;;;17.70;99.90;;;;;;5036803;28;20456;-91
2021/07/15 05:22:39;;;;;;;1.90;0.73;;;17.70;99.90;;;;;;5035954;28;20477;-91
2021/07/15 05:25:10;;;;;;;3.67;0.67;;;17.80;99.90;;;;;;5036068;28;20474;-91
2021/07/15 05:27:37;;;;;;;2.70;0.67;;;17.70;99.90;;;;;;5036598;28;20821;-90
2021/07/15 05:30:06;;;;;;;1.47;0.63;;;17.80;99.90;;;;;;5034965;28;20446;-91
2021/07/15 05:32:34;;;;;;;4.40;1.03;;;17.80;99.90;;;;;;5036226;28;20449;-91
2021/07/15 05:35:01;;;;;;;1.73;0.93;;;17.80;99.90;;;;;;5034943;28;20481;-91
2021/07/15 05:37:28;;;;;;;3.27;0.80;;;17.80;99.90;;;;;;5035541;28;20468;-91
2021/07/15 05:39:55;;;;;;;1.40;0.87;;;17.80;99.90;;;;;;5036099;28;20537;-91
2021/07/15 05:42:22;;;;;;;1.73;0.80;;;17.90;99.90;;;;;;5046695;28;20485;-89
2021/07/15 05:44:48;;;;;;;2.10;0.60;;;17.90;99.90;;;;;;5044918;28;20460;-92
2021/07/15 05:47:15;;;;;;;1.20;0.50;;;17.90;99.90;;;;;;5036908;28;20445;-91
2021/07/15 05:49:44;;;;;;;1.30;0.60;;;17.90;99.90;;;;;;5036602;28;20970;-91
2021/07/15 05:52:12;;;;;;;3.57;0.80;;;17.90;99.90;;;;;;5037034;28;20904;-91
2021/07/15 05:54:39;;;;;;;0.90;0.80;;;17.90;99.90;;;;;;5035903;28;20473;-92
2021/07/15 07:26:35;;;;;;;1.90;0.70;;;19.70;99.90;;;;;;4942069;28;20463;-89
2021/07/15 07:38:37;;;;;;;3.73;0.70;;;21.20;99.90;;;;;;5087101;22;20493;-90
2021/07/15 07:41:51;;;;;;;1.93;0.67;;;21.40;99.90;;;;;;5051450;28;20463;-90
2021/07/15 07:51:10;;;;;;;2.53;0.87;;;21.40;99.90;;;;;;4950863;29;20462;-90
2021/07/15 07:54:07;;;;;;;2.57;0.80;;;21.30;99.90;;;;;;5015747;28;20455;-90
2021/07/15 07:56:58;;;;;;;1.20;0.90;;;21.10;99.90;;;;;;5022788;28;20465;-90
2021/07/15 07:59:29;;;;;;;0.77;0.70;;;21.00;99.90;;;;;;5022256;28;20453;-90
2021/07/15 08:05:25;;;;;;;1.70;1.20;;;20.90;99.90;;;;;;5013538;28;20564;-90
2021/07/15 10:29:46;;;;;;;1.30;0.73;;;26.40;92.10;;;;;;5041304;28;20432;-92
2021/07/15 11:14:58;;;;;;;5.20;2.03;;;24.60;94.90;;;;;;4469737;22;20515;-92
2021/07/15 11:17:33;;;;;;;3.40;1.67;;;24.70;95.20;;;;;;5053566;28;20459;-92
2021/07/15 11:23:22;;;;;;;1.43;0.80;;;24.80;95.60;;;;;;5022251;28;20478;-86
2021/07/15 11:26:41;;;;;;;2.80;1.73;;;24.80;95.60;;;;;;5017634;28;20485;-87
2021/07/15 11:29:08;;;;;;;1.73;1.33;;;24.70;94.70;;;;;;5026931;28;20492;-84
2021/07/15 11:31:42;;;;;;;4.97;2.60;;;24.80;94.50;;;;;;5038592;28;20445;-85
2021/07/15 11:34:11;;;;;;;3.73;1.50;;;24.20;95.50;;;;;;5041081;28;20473;-83
2021/07/15 11:36:38;;;;;;;1.70;1.47;;;24.20;96.40;;;;;;5042146;28;20835;-86
2021/07/15 11:39:06;;;;;;;1.10;1.00;;;24.40;96.30;;;;;;5036508;28;20477;-86
2021/07/15 11:41:44;;;;;;;5.00;1.40;;;24.60;96.40;;;;;;5037801;28;20459;-87
2021/07/15 11:44:13;;;;;;;3.73;1.23;;;24.80;95.50;;;;;;5049983;28;20500;-85
2021/07/15 11:46:42;;;;;;;1.40;0.90;;;25.10;95.20;;;;;;5050473;28;20969;-84
2021/07/15 11:49:25;;;;;;;1.30;0.80;;;25.20;94.20;;;;;;5047784;28;20950;-85
2021/07/15 11:52:05;;;;;;;1.73;1.00;;;25.50;94.20;;;;;;5049153;28;20449;-84
2021/07/15 11:54:35;;;;;;;2.57;0.90;;;26.00;92.70;;;;;;5053572;28;20446;-86
2021/07/15 11:57:25;;;;;;;1.73;0.83;;;26.80;90.90;;;;;;5050279;28;20552;-85
2021/07/15 11:59:53;;;;;;;2.60;1.73;;;27.80;88.30;;;;;;5046259;28;20486;-85
2021/07/15 12:02:24;;;;;;;1.30;0.90;;;28.50;87.10;;;;;;5038797;28;20928;-83
2021/07/15 12:05:17;;;;;;;1.80;1.10;;;28.70;83.90;;;;;;5037741;28;20457;-83
2021/07/15 12:07:46;;;;;;;1.23;0.90;;;28.40;84.40;;;;;;5037623;28;20452;-84
2021/07/15 12:10:24;;;;;;;1.00;0.87;;;27.60;84.90;;;;;;5038016;28;20445;-83
2021/07/15 12:12:52;;;;;;;1.10;0.97;;;26.90;87.50;;;;;;5039752;28;20460;-84
2021/07/15 12:15:27;;;;;;;3.27;1.00;;;26.10;89.80;;;;;;5038062;28;20791;-84
2021/07/15 12:18:00;;;;;;;1.33;1.23;;;25.70;91.10;;;;;;5038077;28;20536;-83
2021/07/15 12:20:37;;;;;;;2.10;1.00;;;25.30;92.20;;;;;;5037941;28;21062;-84
2021/07/15 12:23:05;;;;;;;2.60;1.17;;;25.00;92.80;;;;;;5044834;28;20572;-84
2021/07/15 12:25:39;;;;;;;2.00;1.17;;;24.80;93.00;;;;;;5040545;28;20459;-83
2021/07/15 12:28:17;;;;;;;1.10;0.90;;;24.50;93.20;;;;;;5019132;28;21012;-83
2021/07/15 12:30:50;;;;;;;1.20;1.10;;;24.50;93.30;;;;;;5021443;28;20461;-83
2021/07/15 12:33:26;;;;;;;0.97;0.70;;;24.50;93.30;;;;;;5019207;28;20454;-84
2021/07/15 12:36:00;;;;;;;1.20;1.10;;;24.50;93.10;;;;;;5019990;28;20504;-83
2021/07/15 12:38:37;;;;;;;2.00;0.83;;;24.70;93.00;;;;;;5036740;28;20518;-83
2021/07/15 12:41:09;;;;;;;2.30;0.70;;;24.90;92.60;;;;;;5040865;28;20503;-84
2021/07/15 12:43:52;;;;;;;3.07;1.60;;;25.20;92.20;;;;;;5038729;28;20495;-83
2021/07/15 12:46:36;;;;;;;1.00;0.77;;;25.50;91.50;;;;;;5038407;28;20482;-84
2021/07/15 12:49:16;;;;;;;1.97;1.10;;;25.50;91.40;;;;;;5038278;28;20470;-84
2021/07/15 12:51:49;;;;;;;1.43;1.33;;;25.70;90.60;;;;;;5043437;28;20484;-83
2021/07/15 12:54:29;;;;;;;3.70;2.43;;;25.70;90.00;;;;;;5045083;28;20441;-83
2021/07/15 12:57:05;;;;;;;7.37;1.90;;;25.50;90.50;;;;;;5039045;28;20447;-83
2021/07/15 12:59:42;;;;;;;3.90;1.40;;;25.50;90.00;;;;;;5039869;28;20480;-83
2021/07/15 13:02:11;;;;;;;1.57;0.90;;;25.60;90.30;;;;;;5039375;28;20546;-84
2021/07/15 13:04:41;;;;;;;1.73;0.80;;;25.80;89.40;;;;;;5037158;28;20923;-84
2021/07/15 13:07:13;;;;;;;1.20;0.73;;;25.70;89.20;;;;;;5037686;28;20467;-84
2021/07/15 13:10:10;;;;;;;5.13;1.30;;;25.50;90.60;;;;;;5036594;28;20469;-83
2021/07/15 13:15:31;;;;;;;1.03;0.90;;;25.70;90.40;;;;;;5038375;28;20525;-84
2021/07/15 13:18:16;;;;;;;0.97;0.87;;;26.00;89.40;;;;;;5037282;28;20453;-83
2021/07/15 13:20:55;;;;;;;1.00;0.90;;;26.00;88.40;;;;;;5048994;28;20477;-83
2021/07/15 13:24:08;;;;;;;1.20;1.00;;;26.00;87.60;;;;;;5041904;28;20472;-84
2021/07/15 13:26:56;;;;;;;1.57;1.03;;;26.10;87.60;;;;;;5028169;28;20449;-84
2021/07/15 13:29:38;;;;;;;1.50;1.27;;;26.40;87.00;;;;;;5035082;28;20477;-84
2021/07/15 13:32:16;;;;;;;1.47;0.93;;;26.30;86.90;;;;;;5034703;28;20464;-84
2021/07/15 13:34:45;;;;;;;1.53;1.30;;;26.20;88.90;;;;;;5015598;28;20457;-83
2021/07/15 13:37:15;;;;;;;1.20;1.10;;;26.00;90.40;;;;;;5018416;28;20868;-84
2021/07/15 13:39:45;;;;;;;2.80;1.00;;;25.90;91.10;;;;;;5026873;28;20492;-84
2021/07/15 13:42:15;;;;;;;1.67;1.00;;;25.80;91.20;;;;;;5023956;28;20442;-84
2021/07/15 13:44:50;;;;;;;1.27;0.90;;;25.70;91.40;;;;;;5044384;28;21013;-84
2021/07/15 13:47:24;;;;;;;1.20;1.10;;;25.60;92.00;;;;;;5042922;28;20448;-84
2021/07/15 13:50:40;;;;;;;0.77;0.73;;;25.50;91.80;;;;;;5043014;28;20487;-84
2021/07/15 13:53:15;;;;;;;1.70;1.30;;;25.20;91.90;;;;;;5035962;28;20457;-84
2021/07/15 13:59:04;;;;;;;2.03;1.83;;;25.10;91.30;;;;;;4994247;28;20490;-84
2021/07/15 14:01:37;;;;;;;3.33;3.03;;;25.20;91.20;;;;;;5036187;28;20465;-84
2021/07/15 14:07:36;;;;;;;0.87;0.87;;;26.10;90.30;;;;;;5036528;28;20405;-84
2021/07/15 14:13:44;;;;;;;1.60;1.50;;;27.30;85.30;;;;;;5035157;28;20784;-84
2021/07/15 14:16:16;;;;;;;1.50;1.40;;;28.00;83.90;;;;;;5033960;28;20963;-84
2021/07/15 14:18:51;;;;;;;1.80;1.43;;;27.90;83.90;;;;;;5034530;28;20579;-85
2021/07/15 14:21:37;;;;;;;2.20;2.00;;;27.50;83.70;;;;;;5034932;28;20480;-84
2021/07/15 14:24:05;;;;;;;1.77;1.60;;;27.20;85.50;;;;;;5034817;28;20487;-85
2021/07/15 14:27:02;;;;;;;1.70;1.60;;;27.00;86.40;;;;;;5034149;28;20474;-84
2021/07/15 14:29:46;;;;;;;5.63;5.03;;;26.70;87.90;;;;;;5040803;28;20806;-85
2021/07/15 14:32:41;;;;;;;2.23;2.03;;;26.80;87.40;;;;;;5039732;28;20431;-88
2021/07/15 14:35:24;;;;;;;1.30;1.20;;;26.90;87.00;;;;;;5016736;28;20861;-89
2021/07/15 14:37:58;;;;;;;2.30;1.47;;;26.80;86.20;;;;;;5015214;28;20481;-90
2021/07/15 14:40:25;;;;;;;1.40;1.30;;;27.00;87.20;;;;;;5018727;28;21072;-90
2021/07/15 14:42:52;;;;;;;1.90;1.47;;;26.70;86.10;;;;;;5035276;28;20445;-90
2021/07/15 14:45:20;;;;;;;1.67;1.57;;;26.60;87.10;;;;;;5035264;28;20485;-90
2021/07/15 14:47:48;;;;;;;1.40;1.30;;;26.60;88.30;;;;;;5033571;28;20461;-90
2021/07/15 14:50:16;;;;;;;1.63;1.40;;;26.50;88.90;;;;;;5033977;28;20493;-90
2021/07/15 14:52:46;;;;;;;3.23;2.93;;;26.30;89.10;;;;;;5034482;28;20937;-90
2021/07/15 14:58:04;;;;;;;4.07;1.53;;;25.80;90.20;;;;;;5035437;28;20817;-89
2021/07/15 15:00:31;;;;;;;1.70;1.60;;;25.70;90.50;;;;;;5035762;28;20499;-90
2021/07/15 15:03:07;;;;;;;1.30;1.20;;;25.70;90.70;;;;;;5041563;28;20803;-89
2021/07/15 15:05:41;;;;;;;1.40;1.23;;;25.80;90.40;;;;;;5044989;28;20458;-89
2021/07/15 15:08:19;;;;;;;1.60;1.50;;;25.90;89.60;;;;;;5044686;28;20798;-90
2021/07/15 15:10:50;;;;;;;1.40;1.30;;;26.00;88.60;;;;;;5042310;28;20476;-89
2021/07/15 15:13:21;;;;;;;1.20;1.10;;;25.90;87.80;;;;;;5050908;28;20443;-88
2021/07/15 15:15:48;;;;;;;1.20;1.10;;;25.90;88.70;;;;;;5027945;28;20462;-91
2021/07/15 15:18:20;;;;;;;1.70;1.40;;;25.80;88.20;;;;;;5036237;28;20576;-89
2021/07/15 15:20:47;;;;;;;2.63;2.17;;;25.60;88.70;;;;;;5037802;28;20469;-89
2021/07/15 15:23:20;;;;;;;3.10;2.40;;;25.50;89.40;;;;;;5047865;28;20455;-89
2021/07/15 15:25:50;;;;;;;4.97;1.83;;;25.50;90.90;;;;;;5055108;28;20505;-89
2021/07/15 15:28:18;;;;;;;1.47;1.37;;;25.40;90.40;;;;;;5054401;28;20465;-88
2021/07/15 15:30:45;;;;;;;1.97;1.27;;;25.40;90.50;;;;;;5047346;28;20446;-89
2021/07/15 15:33:12;;;;;;;2.20;1.27;;;25.50;90.30;;;;;;5057352;28;20442;-89
2021/07/15 15:35:48;;;;;;;2.10;1.60;;;25.80;90.00;;;;;;5051860;28;20447;-90
2021/07/15 15:38:21;;;;;;;1.90;1.37;;;26.00;87.50;;;;;;5055558;28;20421;-89
2021/07/15 15:40:49;;;;;;;1.50;1.40;;;26.10;88.00;;;;;;5047624;28;20445;-89
2021/07/15 15:43:17;;;;;;;3.00;1.53;;;26.20;87.00;;;;;;5043888;28;20458;-89
2021/07/15 15:45:45;;;;;;;1.83;1.63;;;26.10;87.20;;;;;;5041630;28;20537;-90
2021/07/15 15:48:12;;;;;;;2.90;1.60;;;25.90;87.40;;;;;;5044707;28;20950;-90
2021/07/15 15:50:39;;;;;;;1.43;1.33;;;25.80;88.00;;;;;;5039276;28;20451;-90
2021/07/15 15:53:07;;;;;;;1.73;1.63;;;25.70;88.30;;;;;;5038199;28;20491;-89
2021/07/15 15:55:34;;;;;;;2.50;2.30;;;25.80;89.80;;;;;;5038391;28;20478;-90
2021/07/15 15:58:06;;;;;;;1.47;1.37;;;25.90;88.00;;;;;;5047404;28;20441;-89
2021/07/15 16:00:35;;;;;;;1.70;1.60;;;26.00;88.10;;;;;;5046824;28;20492;-89
2021/07/15 16:03:01;;;;;;;2.03;1.70;;;26.10;86.40;;;;;;5052619;28;20460;-89
2021/07/15 16:05:43;;;;;;;1.80;1.70;;;26.10;86.10;;;;;;5038180;28;20963;-90
2021/07/15 16:08:16;;;;;;;1.57;1.47;;;26.10;86.70;;;;;;5041110;28;20441;-89
2021/07/15 16:10:48;;;;;;;1.67;1.57;;;26.10;86.10;;;;;;5037292;28;20472;-90
2021/07/15 16:13:16;;;;;;;1.87;1.70;;;26.10;85.40;;;;;;5036365;28;20479;-89
2021/07/15 16:15:43;;;;;;;2.07;1.90;;;26.10;86.30;;;;;;5036100;28;20456;-90
2021/07/15 16:18:13;;;;;;;1.40;1.30;;;26.00;86.00;;;;;;5042312;28;20456;-89
2021/07/15 16:20:40;;;;;;;1.27;1.10;;;26.00;85.80;;;;;;5038282;28;20484;-89
2021/07/15 16:23:08;;;;;;;2.73;1.93;;;26.00;85.50;;;;;;5037946;28;20539;-90
2021/07/15 16:25:46;;;;;;;2.87;2.50;;;25.80;86.10;;;;;;5036741;28;20569;-90
2021/07/15 16:28:17;;;;;;;1.97;1.70;;;25.60;87.00;;;;;;5037592;28;20438;-88
2021/07/15 16:30:48;;;;;;;2.97;2.40;;;25.50;87.90;;;;;;5038528;28;20495;-90
2021/07/15 16:33:19;;;;;;;2.10;1.60;;;25.20;88.10;;;;;;5038846;28;20430;-89
2021/07/15 16:35:47;;;;;;;1.90;1.70;;;24.90;89.30;;;;;;5036622;28;20519;-88
2021/07/15 16:38:14;;;;;;;1.90;1.80;;;24.80;89.50;;;;;;5043517;28;20456;-88
2021/07/15 16:40:43;;;;;;;1.67;1.50;;;24.80;90.20;;;;;;5056254;28;20440;-89
2021/07/15 16:43:13;;;;;;;1.10;1.00;;;24.50;89.90;;;;;;5054684;28;20437;-87
2021/07/15 16:45:45;;;;;;;1.70;1.50;;;24.40;90.20;;;;;;5055138;28;20464;-89
2021/07/15 16:48:15;;;;;;;1.40;1.30;;;24.30;90.20;;;;;;5053318;28;20459;-89
2021/07/15 16:50:50;;;;;;;1.50;1.20;;;24.20;90.60;;;;;;5054537;28;20457;-88
2021/07/15 16:53:17;;;;;;;4.50;1.60;;;24.20;90.90;;;;;;5052576;28;20520;-89
2021/07/15 16:55:45;;;;;;;1.33;1.23;;;24.10;91.10;;;;;;5054101;28;20430;-88
2021/07/15 16:58:13;;;;;;;2.17;1.30;;;24.00;91.40;;;;;;5052359;28;20488;-88
2021/07/15 17:00:39;;;;;;;2.23;2.07;;;23.90;91.60;;;;;;5044377;28;20460;-90
2021/07/15 17:03:07;;;;;;;2.00;1.90;;;23.80;92.10;;;;;;5035445;28;20460;-88
2021/07/15 17:05:33;;;;;;;3.23;2.97;;;23.70;92.60;;;;;;5034708;28;20485;-89
2021/07/15 17:08:08;;;;;;;3.50;2.30;;;23.70;93.10;;;;;;5035146;28;20433;-89
2021/07/15 17:10:41;;;;;;;2.13;2.03;;;23.60;93.40;;;;;;5034376;28;20500;-88
2021/07/15 17:13:13;;;;;;;2.10;2.00;;;23.40;93.70;;;;;;5036338;28;20433;-89
2021/07/15 17:15:40;;;;;;;1.83;1.73;;;23.40;94.00;;;;;;5034922;28;20445;-89
2021/07/15 17:18:09;;;;;;;2.37;2.17;;;23.30;94.10;;;;;;5036611;28;20453;-88
2021/07/15 17:20:46;;;;;;;1.87;1.67;;;23.30;94.40;;;;;;5174414;23;20496;-93
2021/07/15 17:23:14;;;;;;;1.80;1.70;;;23.20;94.70;;;;;;5044894;28;20467;-91
2021/07/15 17:25:43;;;;;;;7.77;6.97;;;23.10;95.30;;;;;;5041463;28;20481;-92
2021/07/15 17:28:32;;;;;;;2.60;2.40;;;23.10;96.70;;;;;;5053599;28;20448;-92
2021/07/15 17:31:31;;;;;;;3.37;2.13;;;22.90;97.80;;;;;;5050327;28;20475;-92
2021/07/15 17:34:09;;;;;;;2.37;1.87;;;22.40;99.40;;;;;;5051025;28;20513;-92
2021/07/15 17:37:20;;;;;;;2.57;2.00;;;22.00;99.90;;;;;;5043552;28;20450;-92
2021/07/15 17:49:57;;;;;;;4.30;1.60;;;19.80;99.90;;;;;;5049155;28;20493;-92
2021/07/15 17:58:43;;;;;;;;;;;;;;;;;;;;;
2021/07/15 18:01:19;;;;;;;5.23;2.70;;;19.40;99.90;;;;;;5055567;28;20398;-92
2021/07/15 18:03:47;;;;;;;3.43;2.00;;;19.40;99.90;;;;;;5057139;28;20466;-92
2021/07/15 18:06:24;;;;;;;3.67;2.57;;;19.40;99.90;;;;;;5050322;28;20476;-91
2021/07/15 18:09:27;;;;;;;2.57;2.00;;;19.30;99.90;;;;;;5056951;28;20450;-92
2021/07/15 18:12:01;;;;;;;4.67;2.20;;;19.20;99.90;;;;;;5046110;28;20449;-91
2021/07/15 18:17:26;;;;;;;2.70;1.93;;;18.90;99.90;;;;;;5040738;28;20442;-92
2021/07/15 18:23:14;;;;;;;3.67;1.90;;;19.00;99.90;;;;;;5041297;28;20449;-92
2021/07/15 18:25:56;;;;;;;1.83;1.70;;;19.00;99.90;;;;;;5042303;28;20828;-92
2021/07/15 18:29:09;;;;;;;6.27;2.60;;;19.00;99.90;;;;;;5054822;28;20440;-94
2021/07/15 18:31:52;;;;;;;6.90;3.90;;;18.90;99.90;;;;;;5009615;28;20542;-92
2021/07/15 18:34:47;;;;;;;2.03;1.60;;;18.80;99.90;;;;;;5043316;28;20550;-92
2021/07/15 18:40:17;;;;;;;2.37;2.00;;;18.80;99.90;;;;;;5042397;28;20540;-92
2021/07/15 18:42:54;;;;;;;2.30;2.03;;;18.80;99.90;;;;;;5047491;28;20440;-92
2021/07/15 18:49:30;;;;;;;20.40;13.10;;;18.60;99.90;;;;;;4954131;28;20445;-89
2021/07/15 18:55:48;;;;;;;4.97;3.10;;;18.60;99.90;;;;;;4929035;29;20457;-88
2021/07/15 19:12:55;;;;;;;3.20;2.67;;;18.50;99.90;;;;;;5014471;28;20464;-89
2021/07/15 19:15:32;;;;;;;2.60;2.37;;;18.50;99.90;;;;;;5018519;28;20450;-88
2021/07/15 19:18:17;;;;;;;3.23;2.30;;;18.60;99.90;;;;;;5019870;28;20443;-87
2021/07/15 19:24:26;;;;;;;2.93;2.63;;;18.50;99.90;;;;;;4999938;28;20436;-89
2021/07/15 19:27:14;;;;;;;3.47;3.00;;;18.50;99.90;;;;;;5002547;28;20450;-89
2021/07/15 19:29:58;;;;;;;3.30;2.40;;;18.50;99.90;;;;;;5007345;28;20931;-90
2021/07/15 19:32:33;;;;;;;4.80;3.40;;;18.50;99.90;;;;;;5010588;28;20449;-89
2021/07/15 19:38:16;;;;;;;;;;;;;;;;;;;;;
2021/07/15 19:41:00;;;;;;;2.67;2.37;;;18.60;99.90;;;;;;4994159;28;20465;-90
2021/07/15 19:44:15;;;;;;;3.10;2.80;;;18.70;99.90;;;;;;5019951;28;20444;-90
2021/07/15 19:50:59;;;;;;;;;;;;;;;;;;;;;
2021/07/15 19:57:09;;;;;;;3.73;2.80;;;18.70;99.90;;;;;;4855892;29;20452;-89
2021/07/15 19:59:38;;;;;;;12.13;8.40;;;18.60;99.90;;;;;;4962570;28;20543;-88
2021/07/15 20:08:36;;;;;;;3.83;2.93;;;18.60;99.90;;;;;;5000260;28;20456;-89
2021/07/15 20:14:02;;;;;;;3.30;2.90;;;18.70;99.90;;;;;;4990750;28;20476;-89
2021/07/15 20:22:30;;;;;;;2.40;1.87;;;18.70;99.90;;;;;;4965930;28;20443;-89
2021/07/15 23:21:02;;;;;;;5.43;4.57;;;17.90;99.90;;;;;;5239307;22;20530;-88
2021/07/15 23:23:29;;;;;;;4.87;4.17;;;17.90;99.90;;;;;;5053796;28;20447;-89
2021/07/15 23:25:56;;;;;;;4.30;3.97;;;17.90;99.90;;;;;;5057148;28;20482;-90
2021/07/15 23:28:22;;;;;;;4.90;4.37;;;17.90;99.90;;;;;;5057379;28;20451;-88
2021/07/15 23:30:49;;;;;;;4.80;4.10;;;17.90;99.90;;;;;;5042043;28;20475;-88
2021/07/15 23:33:16;;;;;;;4.47;4.07;;;17.80;99.90;;;;;;5022981;28;20451;-89
2021/07/15 23:35:43;;;;;;;7.23;5.00;;;17.70;99.90;;;;;;5025760;28;20452;-87
2021/07/15 23:38:11;;;;;;;4.60;4.20;;;17.70;99.90;;;;;;5020250;28;20448;-89
2021/07/15 23:40:38;;;;;;;5.43;4.93;;;17.60;99.90;;;;;;5018160;28;20494;-88
2021/07/15 23:43:04;;;;;;;6.67;4.40;;;17.60;99.90;;;;;;5030233;28;20459;-89
2021/07/15 23:45:31;;;;;;;5.23;4.70;;;17.50;99.90;;;;;;5036945;28;20473;-88
2021/07/15 23:47:58;;;;;;;6.00;4.00;;;17.40;99.90;;;;;;5038426;28;20464;-91
2021/07/15 23:50:25;;;;;;;5.37;4.97;;;17.30;99.90;;;;;;5039655;28;20759;-89
2021/07/15 23:52:52;;;;;;;6.97;4.83;;;17.20;99.90;;;;;;5031369;28;20455;-89
2021/07/15 23:55:20;;;;;;;5.10;4.70;;;17.30;99.90;;;;;;5016674;28;20948;-90
2021/07/15 23:57:48;;;;;;;5.77;5.10;;;17.20;99.90;;;;;;5017112;28;20457;-90
